createdAt,value
2019-05-21T00:02:25.976Z,73.17
2019-05-21T00:04:53.963Z,74.20
2019-05-21T00:07:22.019Z,72.87
2019-05-21T00:09:50.013Z,71.87
2019-05-21T00:12:18.046Z,72.93
2019-05-21T00:14:46.035Z,72.93
2019-05-21T00:17:13.995Z,72.20
2019-05-21T00:19:41.973Z,78.20
2019-05-21T00:22:09.947Z,72.67
2019-05-21T00:24:37.933Z,73.17
2019-05-21T00:27:05.873Z,70.70
2019-05-21T00:29:52.053Z,70.87
2019-05-21T00:32:37.846Z,69.43
2019-05-21T00:35:25.231Z,71.47
2019-05-21T00:38:11.262Z,71.50
2019-05-21T00:40:57.229Z,69.70
2019-05-21T00:43:30.116Z,72.93
2019-05-21T00:45:58.007Z,73.77
2019-05-21T00:48:25.983Z,73.60
2019-05-21T00:50:53.947Z,72.37
2019-05-21T00:53:21.925Z,74.20
2019-05-21T00:55:49.950Z,73.07
2019-05-21T00:58:17.876Z,73.50
2019-05-21T01:00:45.829Z,72.90
2019-05-21T01:03:13.836Z,72.50
2019-05-21T01:05:41.764Z,75.80
2019-05-21T01:08:09.737Z,78.40
2019-05-21T01:10:37.721Z,76.27
2019-05-21T01:13:05.673Z,74.77
2019-05-21T01:15:33.653Z,71.97
2019-05-21T01:18:01.608Z,72.77
2019-05-21T01:20:29.601Z,77.30
2019-05-21T01:22:57.670Z,72.67
2019-05-21T01:25:25.618Z,74.73
2019-05-21T01:27:53.621Z,71.83
2019-05-21T01:30:21.559Z,72.10
2019-05-21T01:32:49.532Z,71.53
2019-05-21T01:35:17.735Z,73.33
2019-05-21T01:37:45.784Z,72.00
2019-05-21T01:40:13.758Z,70.60
2019-05-21T01:42:41.751Z,71.10
2019-05-21T01:45:09.707Z,72.10
2019-05-21T01:47:37.709Z,72.10
2019-05-21T01:50:05.638Z,72.67
2019-05-21T01:52:33.617Z,71.27
2019-05-21T01:55:01.541Z,71.20
2019-05-21T01:57:29.512Z,72.37
2019-05-21T01:59:57.503Z,72.00
2019-05-21T02:02:25.484Z,72.33
2019-05-21T02:04:53.622Z,72.30
2019-05-21T02:07:21.528Z,73.50
2019-05-21T02:10:07.872Z,73.93
2019-05-21T02:12:35.930Z,72.90
2019-05-21T02:15:03.992Z,73.17
2019-05-21T02:17:32.014Z,71.33
2019-05-21T02:20:00.035Z,72.83
2019-05-21T02:22:28.068Z,72.87
2019-05-21T02:24:56.038Z,75.67
2019-05-21T02:27:24.021Z,73.10
2019-05-21T02:29:51.978Z,80.00
2019-05-21T02:32:19.940Z,73.27
2019-05-21T02:34:47.935Z,71.37
2019-05-21T02:37:15.975Z,72.43
2019-05-21T02:39:43.955Z,71.60
2019-05-21T02:42:11.931Z,71.30
2019-05-21T02:44:39.917Z,71.77
2019-05-21T02:47:07.878Z,72.20
2019-05-21T02:49:35.938Z,72.67
2019-05-21T02:52:03.895Z,74.07
2019-05-21T02:54:40.704Z,73.33
2019-05-21T02:57:01.615Z,76.27
2019-05-21T02:59:29.641Z,74.60
2019-05-21T03:02:12.936Z,74.00
2019-05-21T03:04:40.958Z,73.27
2019-05-21T03:07:17.895Z,74.07
2019-05-21T03:09:46.335Z,74.20
2019-05-21T03:12:14.402Z,72.63
2019-05-21T03:14:42.340Z,73.30
2019-05-21T03:17:10.336Z,78.83
2019-05-21T03:19:38.317Z,73.57
2019-05-21T03:22:06.266Z,73.57
2019-05-21T03:24:34.226Z,74.80
2019-05-21T03:27:02.213Z,74.50
2019-05-21T03:29:30.275Z,74.50
2019-05-21T03:31:58.225Z,72.90
2019-05-21T03:34:26.307Z,72.10
2019-05-21T03:36:54.282Z,71.37
2019-05-21T03:39:22.266Z,72.60
2019-05-21T03:41:50.204Z,73.87
2019-05-21T03:44:18.215Z,71.77
2019-05-21T03:46:46.156Z,73.17
2019-05-21T03:49:14.038Z,72.97
2019-05-21T03:51:42.111Z,74.70
2019-05-21T03:54:10.143Z,71.97
2019-05-21T03:56:38.121Z,72.20
2019-05-21T03:59:06.084Z,74.30
2019-05-21T04:01:34.084Z,71.50
2019-05-21T04:04:02.177Z,72.10
2019-05-21T04:06:30.308Z,70.80
2019-05-21T04:08:58.326Z,70.10
2019-05-21T04:11:26.241Z,72.80
2019-05-21T04:13:54.275Z,69.70
2019-05-21T04:16:37.981Z,70.00
2019-05-21T04:19:09.812Z,69.47
2019-05-21T04:21:37.778Z,69.67
2019-05-21T04:24:08.716Z,69.60
2019-05-21T04:26:35.365Z,70.97
2019-05-21T04:29:03.352Z,69.20
2019-05-21T04:31:31.436Z,68.97
2019-05-21T04:33:59.475Z,68.77
2019-05-21T04:36:27.640Z,73.90
2019-05-21T04:38:55.660Z,69.20
2019-05-21T04:41:23.669Z,69.43
2019-05-21T04:43:51.717Z,68.87
2019-05-21T04:46:19.717Z,69.27
2019-05-21T04:48:47.689Z,69.03
2019-05-21T04:51:15.584Z,68.43
2019-05-21T04:53:43.543Z,69.30
2019-05-21T04:56:11.511Z,71.57
2019-05-21T04:58:39.468Z,71.00
2019-05-21T05:01:07.494Z,72.33
2019-05-21T05:03:35.548Z,71.50
2019-05-21T05:06:03.580Z,71.00
2019-05-21T05:08:31.604Z,72.57
2019-05-21T05:10:59.522Z,70.27
2019-05-21T05:13:27.614Z,69.60
2019-05-21T05:15:55.560Z,72.27
2019-05-21T05:18:23.537Z,69.27
2019-05-21T05:20:51.593Z,71.77
2019-05-21T05:23:19.616Z,69.27
2019-05-21T05:25:47.538Z,70.17
2019-05-21T05:28:15.509Z,70.63
2019-05-21T05:30:43.510Z,69.70
2019-05-21T05:33:11.537Z,72.77
2019-05-21T05:35:39.537Z,70.40
2019-05-21T05:38:07.623Z,71.23
2019-05-21T05:40:35.565Z,69.70
2019-05-21T05:43:03.558Z,69.30
2019-05-21T05:45:31.524Z,70.57
2019-05-21T05:47:59.474Z,69.67
2019-05-21T05:50:30.546Z,72.10
2019-05-21T05:52:58.601Z,71.37
2019-05-21T05:55:26.549Z,71.60
2019-05-21T05:57:54.516Z,71.80
2019-05-21T06:00:22.790Z,72.47
2019-05-21T06:02:50.846Z,69.70
2019-05-21T06:05:18.850Z,69.10
2019-05-21T06:07:58.805Z,73.57
2019-05-21T06:10:16.540Z,70.80
2019-05-21T06:12:44.525Z,68.10
2019-05-21T06:15:12.620Z,68.50
2019-05-21T06:17:40.528Z,72.90
2019-05-21T06:20:08.689Z,69.33
2019-05-21T06:22:36.682Z,71.80
2019-05-21T06:25:05.329Z,70.27
2019-05-21T06:27:33.358Z,70.97
2019-05-21T06:30:01.331Z,71.30
2019-05-21T06:32:29.371Z,69.67
2019-05-21T06:34:57.336Z,69.80
2019-05-21T06:37:25.294Z,70.47
2019-05-21T06:39:53.301Z,68.37
2019-05-21T06:42:21.340Z,72.30
2019-05-21T06:44:49.609Z,68.63
2019-05-21T06:47:17.593Z,68.70
2019-05-21T06:49:45.581Z,69.30
2019-05-21T06:52:13.632Z,68.47
2019-05-21T06:54:41.720Z,68.37
2019-05-21T06:57:09.657Z,68.30
2019-05-21T06:59:37.636Z,67.43
2019-05-21T07:02:05.677Z,67.20
2019-05-21T07:04:33.687Z,67.60
2019-05-21T07:07:01.657Z,67.00
2019-05-21T07:09:29.602Z,68.13
2019-05-21T07:11:57.622Z,68.07
2019-05-21T07:14:25.649Z,67.00
2019-05-21T07:16:53.575Z,68.40
2019-05-21T07:19:21.596Z,67.67
2019-05-21T07:21:49.612Z,66.70
2019-05-21T07:24:17.538Z,67.77
2019-05-21T07:26:45.567Z,68.37
2019-05-21T07:29:13.668Z,67.97
2019-05-21T07:31:41.627Z,67.70
2019-05-21T07:34:09.535Z,67.17
2019-05-21T07:36:37.575Z,67.60
2019-05-21T07:39:06.425Z,67.70
2019-05-21T07:41:34.445Z,67.27
2019-05-21T07:44:02.490Z,67.67
2019-05-21T07:46:30.437Z,67.50
2019-05-21T07:48:58.349Z,67.87
2019-05-21T07:51:26.337Z,66.70
2019-05-21T07:53:54.383Z,67.30
2019-05-21T07:56:22.385Z,68.97
2019-05-21T07:58:50.341Z,66.47
2019-05-21T08:01:18.293Z,66.90
2019-05-21T08:03:46.295Z,65.77
2019-05-21T08:06:15.024Z,66.00
2019-05-21T08:08:43.341Z,66.07
2019-05-21T08:11:11.495Z,67.77
2019-05-21T08:13:39.680Z,66.53
2019-05-21T08:16:07.568Z,66.67
2019-05-21T08:18:35.507Z,66.70
2019-05-21T08:21:03.497Z,66.80
2019-05-21T08:23:31.557Z,68.60
2019-05-21T08:25:59.525Z,66.37
2019-05-21T08:28:27.499Z,71.30
2019-05-21T08:30:55.469Z,66.97
2019-05-21T08:33:23.616Z,68.40
2019-05-21T08:35:52.313Z,67.17
2019-05-21T08:38:21.716Z,68.40
2019-05-21T08:40:50.197Z,67.70
2019-05-21T08:43:20.338Z,73.03
2019-05-21T08:45:48.592Z,68.57
2019-05-21T08:48:16.598Z,67.13
2019-05-21T08:50:44.568Z,68.00
2019-05-21T08:53:12.524Z,67.40
2019-05-21T08:55:40.537Z,68.13
2019-05-21T08:58:08.540Z,69.50
2019-05-21T09:00:36.533Z,83.70
2019-05-21T09:03:04.619Z,69.13
2019-05-21T09:05:32.681Z,68.07
2019-05-21T09:08:00.624Z,68.40
2019-05-21T09:10:28.688Z,69.20
2019-05-21T09:12:56.714Z,67.30
2019-05-21T09:15:24.747Z,67.23
2019-05-21T09:17:52.731Z,68.07
2019-05-21T09:20:20.845Z,67.17
2019-05-21T09:22:48.754Z,70.47
2019-05-21T09:25:16.877Z,68.07
2019-05-21T09:27:44.937Z,67.80
2019-05-21T09:30:13.424Z,69.70
2019-05-21T09:32:41.430Z,68.33
2019-05-21T09:35:09.624Z,67.50
2019-05-21T09:37:37.621Z,69.60
2019-05-21T09:40:06.094Z,68.70
2019-05-21T09:42:34.074Z,68.50
2019-05-21T09:45:02.106Z,67.93
2019-05-21T09:47:30.143Z,68.30
2019-05-21T09:49:58.147Z,68.50
2019-05-21T09:52:26.139Z,68.60
2019-05-21T09:54:54.071Z,68.17
2019-05-21T09:57:29.620Z,70.93
2019-05-21T10:00:05.584Z,71.50
2019-05-21T10:02:33.926Z,67.97
2019-05-21T10:05:01.966Z,68.10
2019-05-21T10:07:40.069Z,70.37
2019-05-21T10:09:59.741Z,68.60
2019-05-21T10:12:27.705Z,69.03
2019-05-21T10:14:55.651Z,69.43
2019-05-21T10:17:23.662Z,68.17
2019-05-21T10:19:51.678Z,67.37
2019-05-21T10:22:19.670Z,67.60
2019-05-21T10:24:47.668Z,68.57
2019-05-21T10:27:15.649Z,67.73
2019-05-21T10:29:44.155Z,68.13
2019-05-21T10:32:12.856Z,67.80
2019-05-21T10:34:41.176Z,68.00
2019-05-21T10:37:09.154Z,68.87
2019-05-21T10:39:37.184Z,67.10
2019-05-21T10:42:05.576Z,66.90
2019-05-21T10:44:33.537Z,67.50
2019-05-21T10:47:01.461Z,70.67
2019-05-21T10:49:29.414Z,66.70
2019-05-21T10:51:57.434Z,69.20
2019-05-21T10:54:25.449Z,68.40
2019-05-21T10:56:53.413Z,70.87
2019-05-21T10:59:21.347Z,67.47
2019-05-21T11:02:08.206Z,66.30
2019-05-21T11:04:55.498Z,68.90
2019-05-21T11:07:23.595Z,68.47
2019-05-21T11:09:51.633Z,69.10
2019-05-21T11:12:19.634Z,70.40
2019-05-21T11:14:47.605Z,68.30
2019-05-21T11:17:15.773Z,71.07
2019-05-21T11:19:43.835Z,69.10
2019-05-21T11:22:11.882Z,67.07
2019-05-21T11:24:39.957Z,68.80
2019-05-21T11:27:07.954Z,67.50
2019-05-21T11:29:36.203Z,68.20
2019-05-21T11:32:04.306Z,67.00
2019-05-21T11:34:32.239Z,67.50
2019-05-21T11:37:00.416Z,67.93
2019-05-21T11:39:28.375Z,68.10
2019-05-21T11:41:56.647Z,68.10
2019-05-21T11:44:24.516Z,68.33
2019-05-21T11:46:52.442Z,75.70
2019-05-21T11:49:20.482Z,68.50
2019-05-21T11:51:48.469Z,68.00
2019-05-21T11:54:16.531Z,67.27
2019-05-21T11:56:44.572Z,72.03
2019-05-21T11:59:12.580Z,68.90
2019-05-21T12:01:40.633Z,68.27
2019-05-21T12:04:08.604Z,67.93
2019-05-21T12:06:36.552Z,70.43
2019-05-21T12:09:06.094Z,67.30
2019-05-21T12:11:34.145Z,67.10
2019-05-21T12:14:02.123Z,71.10
2019-05-21T12:16:30.091Z,68.60
2019-05-21T12:18:58.225Z,70.53
2019-05-21T12:21:26.143Z,67.47
2019-05-21T12:23:54.083Z,66.30
2019-05-21T12:26:22.072Z,66.40
2019-05-21T12:28:50.116Z,68.90
2019-05-21T12:31:18.189Z,68.17
2019-05-21T12:33:46.159Z,67.07
2019-05-21T12:36:14.340Z,67.07
2019-05-21T12:38:42.338Z,66.97
2019-05-21T12:41:13.552Z,68.27
2019-05-21T12:43:39.994Z,67.80
2019-05-21T12:46:08.391Z,67.40
2019-05-21T12:48:36.598Z,67.50
2019-05-21T12:51:04.546Z,66.43
2019-05-21T12:53:32.585Z,70.10
2019-05-21T12:56:00.537Z,67.20
2019-05-21T12:58:28.566Z,67.00
2019-05-21T13:00:56.513Z,67.13
2019-05-21T13:03:24.450Z,66.57
2019-05-21T13:05:52.438Z,66.60
2019-05-21T13:08:20.373Z,67.40
2019-05-21T13:10:48.269Z,66.17
2019-05-21T13:13:16.485Z,66.37
2019-05-21T13:15:44.635Z,66.17
2019-05-21T13:18:12.601Z,66.20
2019-05-21T13:20:40.606Z,66.13
2019-05-21T13:23:08.621Z,65.73
2019-05-21T13:25:37.005Z,67.70
2019-05-21T13:28:05.101Z,66.80
2019-05-21T13:30:33.339Z,67.20
2019-05-21T13:33:01.305Z,67.97
2019-05-21T13:35:29.374Z,67.57
2019-05-21T13:37:57.579Z,67.77
2019-05-21T13:40:26.546Z,67.77
2019-05-21T13:42:54.698Z,69.67
2019-05-21T13:45:22.756Z,67.47
2019-05-21T13:47:50.723Z,68.80
2019-05-21T13:50:18.821Z,70.07
2019-05-21T13:52:46.720Z,70.90
2019-05-21T13:55:14.964Z,69.00
2019-05-21T13:57:42.950Z,72.43
2019-05-21T14:00:13.759Z,72.60
2019-05-21T14:02:42.057Z,74.00
2019-05-21T14:05:10.244Z,68.23
2019-05-21T14:07:38.557Z,70.67
2019-05-21T14:10:19.386Z,69.47
2019-05-21T14:12:36.521Z,70.00
2019-05-21T14:15:07.090Z,68.17
2019-05-21T14:17:35.353Z,66.83
2019-05-21T14:20:03.311Z,68.60
2019-05-21T14:22:36.020Z,66.87
2019-05-21T14:25:00.949Z,66.70
2019-05-21T14:27:43.134Z,67.03
2019-05-21T14:29:58.772Z,67.10
2019-05-21T14:32:26.834Z,66.77
2019-05-21T14:35:01.502Z,67.83
2019-05-21T14:37:24.578Z,66.77
2019-05-21T14:39:52.578Z,67.17
2019-05-21T14:42:20.532Z,67.57
2019-05-21T14:44:48.483Z,66.90
2019-05-21T14:47:16.605Z,66.60
2019-05-21T14:49:44.667Z,69.53
2019-05-21T14:52:12.607Z,67.40
2019-05-21T14:54:40.582Z,67.57
2019-05-21T14:57:12.352Z,67.80
2019-05-21T14:59:40.586Z,66.60
2019-05-21T15:02:08.589Z,67.63
2019-05-21T15:04:36.849Z,67.80
2019-05-21T15:07:05.200Z,67.70
2019-05-21T15:09:33.125Z,68.27
2019-05-21T15:12:01.174Z,69.27
2019-05-21T15:14:29.521Z,67.90
2019-05-21T15:16:57.536Z,67.47
2019-05-21T15:19:25.533Z,67.77
2019-05-21T15:21:54.772Z,68.17
2019-05-21T15:24:22.660Z,70.60
2019-05-21T15:26:50.645Z,70.50
2019-05-21T15:29:18.971Z,67.67
2019-05-21T15:31:46.965Z,69.50
2019-05-21T15:34:15.088Z,68.53
2019-05-21T15:36:43.377Z,67.97
2019-05-21T15:39:11.401Z,67.87
2019-05-21T15:41:39.369Z,68.10
2019-05-21T15:44:07.366Z,69.50
2019-05-21T15:46:47.786Z,71.00
2019-05-21T15:49:05.228Z,67.87
2019-05-21T15:51:33.209Z,67.50
2019-05-21T15:54:01.248Z,67.67
2019-05-21T15:56:29.252Z,69.63
2019-05-21T15:58:57.384Z,67.77
2019-05-21T16:01:25.435Z,69.73
2019-05-21T16:03:53.348Z,67.53
2019-05-21T16:06:21.318Z,68.37
2019-05-21T16:08:49.525Z,67.37
2019-05-21T16:11:28.021Z,66.70
2019-05-21T16:13:47.555Z,68.77
2019-05-21T16:16:15.569Z,68.27
2019-05-21T16:18:43.705Z,68.07
2019-05-21T16:21:11.738Z,67.70
2019-05-21T16:23:39.660Z,67.43
2019-05-21T16:26:07.603Z,67.57
2019-05-21T16:28:35.648Z,68.77
2019-05-21T16:31:03.554Z,68.30
2019-05-21T16:33:31.518Z,69.17
2019-05-21T16:35:59.533Z,67.20
2019-05-21T16:38:27.449Z,68.20
2019-05-21T16:40:55.478Z,70.57
2019-05-21T16:43:23.393Z,68.27
2019-05-21T16:45:51.421Z,72.50
2019-05-21T16:48:19.387Z,68.03
2019-05-21T16:50:47.492Z,67.93
2019-05-21T16:53:15.500Z,68.70
2019-05-21T16:55:43.673Z,70.60
2019-05-21T16:58:11.737Z,68.13
2019-05-21T17:00:39.785Z,69.50
2019-05-21T17:03:07.806Z,67.13
2019-05-21T17:05:35.836Z,68.23
2019-05-21T17:08:03.970Z,68.40
2019-05-21T17:10:31.975Z,67.87
2019-05-21T17:12:59.996Z,69.43
2019-05-21T17:15:27.926Z,68.70
2019-05-21T17:17:55.886Z,67.90
2019-05-21T17:20:23.893Z,69.77
2019-05-21T17:22:51.829Z,69.47
2019-05-21T17:25:19.920Z,68.37
2019-05-21T17:27:47.882Z,68.77
2019-05-21T17:30:15.861Z,67.80
2019-05-21T17:32:43.814Z,67.90
2019-05-21T17:35:11.772Z,70.87
2019-05-21T17:37:39.765Z,68.87
2019-05-21T17:40:07.958Z,67.30
2019-05-21T17:42:35.985Z,75.20
2019-05-21T17:45:04.124Z,69.80
2019-05-21T17:47:32.043Z,68.70
2019-05-21T17:50:00.090Z,68.40
2019-05-21T17:52:28.081Z,67.90
2019-05-21T17:54:57.160Z,68.87
2019-05-21T17:57:25.833Z,69.87
2019-05-21T17:59:53.712Z,68.70
2019-05-21T18:02:22.310Z,70.53
2019-05-21T18:04:50.406Z,71.43
2019-05-21T18:07:18.733Z,69.03
2019-05-21T18:09:46.952Z,69.27
2019-05-21T18:12:30.859Z,71.07
2019-05-21T18:14:45.334Z,71.37
2019-05-21T18:17:15.706Z,72.70
2019-05-21T18:19:43.898Z,75.93
2019-05-21T18:22:13.524Z,74.57
2019-05-21T18:24:41.533Z,72.97
2019-05-21T18:27:09.591Z,71.07
2019-05-21T18:29:37.635Z,70.97
2019-05-21T18:32:05.688Z,70.57
2019-05-21T18:34:33.853Z,69.10
2019-05-21T18:37:01.964Z,69.10
2019-05-21T18:39:30.343Z,71.60
2019-05-21T18:41:58.409Z,69.20
2019-05-21T18:44:26.377Z,69.27
2019-05-21T18:46:54.572Z,70.10
2019-05-21T18:49:22.585Z,70.57
2019-05-21T18:51:50.708Z,69.20
2019-05-21T18:54:18.653Z,70.40
2019-05-21T18:56:46.667Z,69.37
2019-05-21T18:59:14.711Z,71.50
2019-05-21T19:01:42.677Z,69.57
2019-05-21T19:04:10.659Z,71.27
2019-05-21T19:06:38.713Z,73.63
2019-05-21T19:09:07.261Z,71.07
2019-05-21T19:11:35.259Z,73.17
2019-05-21T19:14:03.243Z,73.03
2019-05-21T19:16:31.241Z,72.80
2019-05-21T19:18:59.660Z,71.27
2019-05-21T19:21:27.761Z,72.43
2019-05-21T19:23:55.791Z,70.77
2019-05-21T19:26:23.794Z,69.70
2019-05-21T19:28:51.761Z,68.97
2019-05-21T19:31:19.743Z,71.00
2019-05-21T19:33:47.699Z,71.23
2019-05-21T19:36:16.535Z,72.07
2019-05-21T19:38:44.576Z,75.57
2019-05-21T19:41:12.768Z,77.30
2019-05-21T19:43:40.830Z,71.90
2019-05-21T19:46:08.793Z,70.67
2019-05-21T19:48:36.769Z,69.27
2019-05-21T19:51:04.757Z,69.67
2019-05-21T19:53:32.805Z,70.67
2019-05-21T19:56:00.850Z,70.00
2019-05-21T19:58:28.833Z,69.57
2019-05-21T20:00:57.377Z,69.57
2019-05-21T20:03:25.490Z,70.60
2019-05-21T20:05:54.192Z,70.23
2019-05-21T20:08:22.841Z,70.27
2019-05-21T20:10:50.910Z,70.77
2019-05-21T20:13:31.859Z,69.10
2019-05-21T20:15:49.105Z,70.00
2019-05-21T20:18:17.101Z,69.70
2019-05-21T20:20:45.063Z,69.20
2019-05-21T20:23:13.776Z,71.23
2019-05-21T20:25:55.261Z,68.80
2019-05-21T20:28:11.695Z,69.47
2019-05-21T20:30:39.915Z,68.97
2019-05-21T20:33:08.333Z,69.77
2019-05-21T20:35:36.855Z,70.60
2019-05-21T20:38:06.377Z,69.83
2019-05-21T20:40:35.335Z,68.90
2019-05-21T20:43:04.725Z,68.67
2019-05-21T20:45:32.927Z,69.97
2019-05-21T20:48:02.537Z,70.67
2019-05-21T20:50:32.085Z,69.43
2019-05-21T20:53:00.123Z,68.93
2019-05-21T20:55:28.209Z,69.77
2019-05-21T20:57:57.380Z,70.47
2019-05-21T21:00:36.178Z,69.97
2019-05-21T21:03:05.298Z,69.40
2019-05-21T21:05:33.490Z,72.27
2019-05-21T21:08:01.473Z,69.20
2019-05-21T21:10:29.741Z,69.50
2019-05-21T21:12:58.668Z,69.10
2019-05-21T21:15:26.576Z,73.37
2019-05-21T21:17:54.769Z,70.77
2019-05-21T21:20:22.723Z,69.90
2019-05-21T21:22:50.727Z,71.07
2019-05-21T21:25:22.470Z,69.40
2019-05-21T21:27:50.464Z,71.27
2019-05-21T21:30:18.833Z,72.80
2019-05-21T21:32:47.576Z,69.40
2019-05-21T21:35:15.576Z,71.00
2019-05-21T21:37:43.748Z,68.87
2019-05-21T21:40:12.924Z,70.20
2019-05-21T21:42:41.247Z,68.47
2019-05-21T21:45:09.415Z,69.27
2019-05-21T21:47:38.383Z,69.27
2019-05-21T21:50:06.412Z,71.10
2019-05-21T21:52:34.962Z,69.77
2019-05-21T21:55:03.825Z,69.53
2019-05-21T21:57:31.885Z,68.37
2019-05-21T21:59:59.768Z,68.80
2019-05-21T22:02:30.951Z,69.80
2019-05-21T22:04:59.698Z,69.37
2019-05-21T22:07:28.291Z,68.60
2019-05-21T22:09:56.309Z,72.40
2019-05-21T22:12:24.228Z,69.67
2019-05-21T22:14:55.209Z,68.70
2019-05-21T22:17:23.556Z,70.37
2019-05-21T22:19:51.600Z,70.30
2019-05-21T22:22:19.599Z,75.77
2019-05-21T22:24:47.635Z,69.80
2019-05-21T22:27:15.999Z,69.73
2019-05-21T22:29:43.903Z,73.73
2019-05-21T22:32:11.982Z,69.77
2019-05-21T22:34:39.937Z,69.93
2019-05-21T22:37:10.138Z,70.10
2019-05-21T22:39:39.721Z,72.37
2019-05-21T22:42:08.223Z,70.13
2019-05-21T22:44:37.620Z,69.77
2019-05-21T22:47:06.746Z,69.50
2019-05-21T22:49:34.802Z,70.30
2019-05-21T22:52:02.810Z,70.57
2019-05-21T22:54:30.765Z,71.20
2019-05-21T22:56:58.818Z,69.60
2019-05-21T22:59:26.994Z,73.40
2019-05-21T23:01:56.535Z,68.47
2019-05-21T23:04:25.029Z,69.50
2019-05-21T23:06:53.470Z,72.27
2019-05-21T23:09:21.459Z,70.23
2019-05-21T23:11:49.415Z,70.20
2019-05-21T23:14:17.410Z,70.13
2019-05-21T23:16:45.424Z,69.87
2019-05-21T23:19:15.168Z,69.93
2019-05-21T23:21:43.878Z,69.90
2019-05-21T23:24:14.545Z,69.80
2019-05-21T23:26:43.155Z,71.30
2019-05-21T23:29:11.244Z,70.57
2019-05-21T23:31:39.201Z,69.40
2019-05-21T23:34:08.766Z,70.70
2019-05-21T23:36:36.781Z,69.57
2019-05-21T23:39:07.026Z,67.97
2019-05-21T23:41:35.867Z,68.00
2019-05-21T23:44:05.468Z,69.83
2019-05-21T23:46:33.531Z,69.17
2019-05-21T23:49:01.543Z,69.13
2019-05-21T23:51:29.544Z,68.87
2019-05-21T23:53:58.232Z,68.87
2019-05-21T23:56:26.195Z,72.07
2019-05-21T23:58:54.838Z,69.50
